createdAt,value
2017-03-15T00:00:54.853Z,80.50
2017-03-15T00:01:53.782Z,80.40
2017-03-15T00:02:52.795Z,80.20
2017-03-15T00:03:51.667Z,80.00
2017-03-15T00:04:50.821Z,79.80
2017-03-15T00:05:50.707Z,79.60
2017-03-15T00:06:49.697Z,79.70
2017-03-15T00:07:48.585Z,79.70
2017-03-15T00:08:47.886Z,79.70
2017-03-15T00:09:46.581Z,79.70
2017-03-15T00:10:45.160Z,79.70
2017-03-15T00:11:44.631Z,79.60
2017-03-15T00:12:44.302Z,79.60
2017-03-15T00:13:43.674Z,79.60
2017-03-15T00:14:42.700Z,79.50
2017-03-15T00:15:41.685Z,79.60
2017-03-15T00:16:40.749Z,79.40
2017-03-15T00:17:40.465Z,79.30
2017-03-15T00:18:39.552Z,79.20
2017-03-15T00:19:38.159Z,79.20
2017-03-15T00:20:37.180Z,79.40
2017-03-15T00:21:36.225Z,79.40
2017-03-15T00:22:35.320Z,79.40
2017-03-15T00:23:34.663Z,79.40
2017-03-15T00:24:33.234Z,79.40
2017-03-15T00:25:31.871Z,79.50
2017-03-15T00:26:30.861Z,79.80
2017-03-15T00:27:29.843Z,80.00
2017-03-15T00:28:28.449Z,80.00
2017-03-15T00:29:28.883Z,80.20
2017-03-15T00:30:27.932Z,80.00
2017-03-15T00:31:26.920Z,79.90
2017-03-15T00:32:26.329Z,79.80
2017-03-15T00:33:24.877Z,79.80
2017-03-15T00:34:23.474Z,79.90
2017-03-15T00:35:22.347Z,79.90
2017-03-15T00:36:20.946Z,79.90
2017-03-15T00:37:19.605Z,80.00
2017-03-15T00:38:18.595Z,79.90
2017-03-15T00:39:17.643Z,80.00
2017-03-15T00:40:16.609Z,80.10
2017-03-15T00:41:15.958Z,80.10
2017-03-15T00:42:15.009Z,80.10
2017-03-15T00:43:13.982Z,80.20
2017-03-15T00:44:12.968Z,80.30
2017-03-15T00:45:12.005Z,80.30
2017-03-15T00:46:11.005Z,80.80
2017-03-15T00:47:09.939Z,80.80
2017-03-15T00:48:08.602Z,81.00
2017-03-15T00:49:07.573Z,81.20
2017-03-15T00:50:06.612Z,81.10
2017-03-15T00:51:05.562Z,81.30
2017-03-15T00:52:04.593Z,81.80
2017-03-15T00:53:03.949Z,82.30
2017-03-15T00:54:02.545Z,82.30
2017-03-15T00:55:01.577Z,82.80
2017-03-15T00:56:00.238Z,82.80
2017-03-15T00:56:59.219Z,82.80
2017-03-15T00:57:57.878Z,82.80
2017-03-15T00:58:57.178Z,82.90
2017-03-15T00:59:56.172Z,82.90
2017-03-15T01:00:55.183Z,82.80
2017-03-15T01:01:54.253Z,82.70
2017-03-15T01:02:53.705Z,82.70
2017-03-15T01:03:52.726Z,82.50
2017-03-15T01:04:52.155Z,82.90
2017-03-15T01:05:50.831Z,82.90
2017-03-15T01:06:49.895Z,83.00
2017-03-15T01:07:49.596Z,83.00
2017-03-15T01:08:48.373Z,83.00
2017-03-15T01:09:47.379Z,82.90
2017-03-15T01:10:46.563Z,82.90
2017-03-15T01:11:45.541Z,82.90
2017-03-15T01:12:44.577Z,82.90
2017-03-15T01:13:43.562Z,82.90
2017-03-15T01:14:42.668Z,82.70
2017-03-15T01:15:48.222Z,82.70
2017-03-15T01:16:46.965Z,82.70
2017-03-15T01:17:46.022Z,82.80
2017-03-15T01:18:45.117Z,82.70
2017-03-15T01:19:44.278Z,82.60
2017-03-15T01:20:43.497Z,82.60
2017-03-15T01:21:42.639Z,82.60
2017-03-15T01:22:44.387Z,82.60
2017-03-15T01:23:44.628Z,82.60
2017-03-15T01:24:43.665Z,82.60
2017-03-15T01:25:43.524Z,82.50
2017-03-15T01:26:42.859Z,82.50
2017-03-15T01:27:41.862Z,82.70
2017-03-15T01:28:42.473Z,82.70
2017-03-15T01:29:41.830Z,82.60
2017-03-15T01:30:40.489Z,82.60
2017-03-15T01:31:39.539Z,82.00
2017-03-15T01:32:38.734Z,82.00
2017-03-15T01:33:37.843Z,81.70
2017-03-15T01:34:36.890Z,81.70
2017-03-15T01:36:04.556Z,81.70
2017-03-15T01:37:03.181Z,81.70
2017-03-15T01:38:02.510Z,81.80
2017-03-15T01:39:01.574Z,81.70
2017-03-15T01:40:00.227Z,81.70
2017-03-15T01:40:59.871Z,81.70
2017-03-15T01:41:59.387Z,81.70
2017-03-15T01:43:02.633Z,81.50
2017-03-15T01:44:01.729Z,81.60
2017-03-15T01:45:00.999Z,81.50
2017-03-15T01:45:59.982Z,81.60
2017-03-15T01:46:59.319Z,81.70
2017-03-15T01:47:58.308Z,81.70
2017-03-15T01:48:57.646Z,81.60
2017-03-15T01:49:56.246Z,81.60
2017-03-15T01:50:55.203Z,81.70
2017-03-15T01:51:53.739Z,81.70
2017-03-15T01:52:52.657Z,81.60
2017-03-15T01:53:51.573Z,81.70
2017-03-15T01:54:50.932Z,81.70
2017-03-15T01:55:49.853Z,81.80
2017-03-15T01:56:48.749Z,81.90
2017-03-15T01:57:47.678Z,81.70
2017-03-15T01:58:46.594Z,81.90
2017-03-15T01:59:45.523Z,81.90
2017-03-15T02:00:44.417Z,81.90
2017-03-15T02:01:43.336Z,81.80
2017-03-15T02:02:42.236Z,81.90
2017-03-15T02:03:41.137Z,81.70
2017-03-15T02:04:40.051Z,81.60
2017-03-15T02:05:39.002Z,81.70
2017-03-15T02:06:38.305Z,81.80
2017-03-15T02:07:36.869Z,81.70
2017-03-15T02:08:35.763Z,81.80
2017-03-15T02:09:34.648Z,81.70
2017-03-15T02:10:33.553Z,81.80
2017-03-15T02:11:32.449Z,81.80
2017-03-15T02:12:31.613Z,81.70
2017-03-15T02:13:30.521Z,81.90
2017-03-15T02:14:29.421Z,82.00
2017-03-15T02:15:28.338Z,82.20
2017-03-15T02:16:27.213Z,82.30
2017-03-15T02:17:25.737Z,82.30
2017-03-15T02:18:24.971Z,82.10
2017-03-15T02:19:23.858Z,82.00
2017-03-15T02:20:22.401Z,82.00
2017-03-15T02:21:21.346Z,82.10
2017-03-15T02:22:20.277Z,81.90
2017-03-15T02:23:19.213Z,82.10
2017-03-15T02:24:18.398Z,82.30
2017-03-15T02:25:17.336Z,82.70
2017-03-15T02:26:15.856Z,82.70
2017-03-15T02:27:14.775Z,83.30
2017-03-15T02:28:13.305Z,83.30
2017-03-15T02:29:12.226Z,83.70
2017-03-15T02:30:11.537Z,83.80
2017-03-15T02:31:10.840Z,83.70
2017-03-15T02:32:09.760Z,83.40
2017-03-15T02:33:08.663Z,83.40
2017-03-15T02:34:07.616Z,83.50
2017-03-15T02:35:06.541Z,83.70
2017-03-15T02:36:05.837Z,83.70
2017-03-15T02:37:04.397Z,83.70
2017-03-15T02:38:03.358Z,83.70
2017-03-15T02:39:02.264Z,83.50
2017-03-15T02:40:01.186Z,83.40
2017-03-15T02:41:00.144Z,84.00
2017-03-15T02:41:59.023Z,84.00
2017-03-15T02:42:57.581Z,84.50
2017-03-15T02:43:56.501Z,84.30
2017-03-15T02:44:55.040Z,84.30
2017-03-15T02:45:54.332Z,84.10
2017-03-15T02:46:53.700Z,84.10
2017-03-15T02:47:52.908Z,84.00
2017-03-15T02:48:51.480Z,84.00
2017-03-15T02:49:50.434Z,84.10
2017-03-15T02:50:49.401Z,84.10
2017-03-15T02:51:48.336Z,84.00
2017-03-15T02:52:47.305Z,84.00
2017-03-15T02:53:46.094Z,84.00
2017-03-15T02:54:45.053Z,84.10
2017-03-15T02:55:43.957Z,83.90
2017-03-15T02:56:42.467Z,83.90
2017-03-15T02:57:41.440Z,84.30
2017-03-15T02:58:40.356Z,84.20
2017-03-15T02:59:39.620Z,84.20
2017-03-15T03:00:38.564Z,84.10
2017-03-15T03:01:37.161Z,84.10
2017-03-15T03:02:36.084Z,84.10
2017-03-15T03:03:35.024Z,84.20
2017-03-15T03:04:33.561Z,84.20
2017-03-15T03:05:32.453Z,84.30
2017-03-15T03:06:31.423Z,84.00
2017-03-15T03:07:30.722Z,83.50
2017-03-15T03:08:29.669Z,83.50
2017-03-15T03:09:28.581Z,83.40
2017-03-15T03:10:27.556Z,83.40
2017-03-15T03:11:26.864Z,83.40
2017-03-15T03:12:25.829Z,83.10
2017-03-15T03:13:24.481Z,83.10
2017-03-15T03:14:23.385Z,82.90
2017-03-15T03:15:22.319Z,82.90
2017-03-15T03:16:21.320Z,82.70
2017-03-15T03:17:20.541Z,82.80
2017-03-15T03:18:19.477Z,82.90
2017-03-15T03:19:18.521Z,82.90
2017-03-15T03:20:17.121Z,82.90
2017-03-15T03:21:15.694Z,82.90
2017-03-15T03:22:14.253Z,82.80
2017-03-15T03:23:13.511Z,82.30
2017-03-15T03:24:12.419Z,82.20
2017-03-15T03:25:10.921Z,82.20
2017-03-15T03:26:09.901Z,82.40
2017-03-15T03:27:08.856Z,82.80
2017-03-15T03:28:07.372Z,82.80
2017-03-15T03:29:06.575Z,83.00
2017-03-15T03:30:05.494Z,83.00
2017-03-15T03:31:04.452Z,82.90
2017-03-15T03:32:03.391Z,83.10
2017-03-15T03:33:02.315Z,83.40
2017-03-15T03:34:01.244Z,83.50
2017-03-15T03:35:00.491Z,83.60
2017-03-15T03:35:59.812Z,83.90
2017-03-15T03:36:58.741Z,84.10
2017-03-15T03:37:57.680Z,84.20
2017-03-15T03:38:56.653Z,84.20
2017-03-15T03:39:55.640Z,84.20
2017-03-15T03:40:54.431Z,84.20
2017-03-15T03:41:53.347Z,84.20
2017-03-15T03:42:52.265Z,84.40
2017-03-15T03:43:51.195Z,84.40
2017-03-15T03:44:50.157Z,84.30
2017-03-15T03:45:49.080Z,84.30
2017-03-15T03:46:48.287Z,84.20
2017-03-15T03:47:47.220Z,84.10
2017-03-15T03:48:46.118Z,84.00
2017-03-15T03:49:45.017Z,84.20
2017-03-15T03:50:43.925Z,84.20
2017-03-15T03:51:42.451Z,84.20
2017-03-15T03:52:41.688Z,84.80
2017-03-15T03:53:40.574Z,85.00
2017-03-15T03:54:39.480Z,85.30
2017-03-15T03:55:38.412Z,85.30
2017-03-15T03:56:37.348Z,85.10
2017-03-15T03:57:36.280Z,85.00
2017-03-15T03:58:35.156Z,85.00
2017-03-15T03:59:34.131Z,85.30
2017-03-15T04:00:33.431Z,85.30
2017-03-15T04:01:32.424Z,85.30
2017-03-15T04:02:31.353Z,84.90
2017-03-15T04:03:30.289Z,85.00
2017-03-15T04:04:29.565Z,84.90
2017-03-15T04:05:28.094Z,84.90
2017-03-15T04:06:26.633Z,84.80
2017-03-15T04:07:25.531Z,84.50
2017-03-15T04:08:24.075Z,84.50
2017-03-15T04:09:23.003Z,84.60
2017-03-15T04:10:22.216Z,84.40
2017-03-15T04:11:20.761Z,84.40
2017-03-15T04:12:19.740Z,84.20
2017-03-15T04:13:18.732Z,84.00
2017-03-15T04:14:17.653Z,83.50
2017-03-15T04:15:16.590Z,83.80
2017-03-15T04:16:15.810Z,83.80
2017-03-15T04:17:14.878Z,83.80
2017-03-15T04:18:13.417Z,83.80
2017-03-15T04:19:12.319Z,83.70
2017-03-15T04:20:11.279Z,83.60
2017-03-15T04:21:10.213Z,83.60
2017-03-15T04:22:09.408Z,83.50
2017-03-15T04:23:08.689Z,83.50
2017-03-15T04:24:07.337Z,83.50
2017-03-15T04:25:06.285Z,83.40
2017-03-15T04:26:04.829Z,83.40
2017-03-15T04:27:03.782Z,83.20
2017-03-15T04:28:03.057Z,83.10
2017-03-15T04:29:01.580Z,83.10
2017-03-15T04:30:00.506Z,83.00
2017-03-15T04:30:59.446Z,83.00
2017-03-15T04:31:58.460Z,83.00
2017-03-15T04:32:57.402Z,83.00
2017-03-15T04:33:56.590Z,83.00
2017-03-15T04:34:55.490Z,83.00
2017-03-15T04:35:54.396Z,82.90
2017-03-15T04:36:53.322Z,82.90
2017-03-15T04:37:51.817Z,82.90
2017-03-15T04:38:50.725Z,82.90
2017-03-15T04:39:49.976Z,82.80
2017-03-15T04:40:48.503Z,82.80
2017-03-15T04:41:47.442Z,82.60
2017-03-15T04:42:46.414Z,82.50
2017-03-15T04:43:45.345Z,82.40
2017-03-15T04:44:44.233Z,82.20
2017-03-15T04:45:43.465Z,81.90
2017-03-15T04:46:42.369Z,81.90
2017-03-15T04:47:41.272Z,82.00
2017-03-15T04:48:40.316Z,82.00
2017-03-15T04:49:38.820Z,82.00
2017-03-15T04:50:37.735Z,82.10
2017-03-15T04:51:36.920Z,82.20
2017-03-15T04:52:35.840Z,82.20
2017-03-15T04:53:34.851Z,82.20
2017-03-15T04:54:33.761Z,82.10
2017-03-15T04:55:32.290Z,82.10
2017-03-15T04:56:30.785Z,81.90
2017-03-15T04:57:30.019Z,82.00
2017-03-15T04:58:29.021Z,82.10
2017-03-15T04:59:27.938Z,82.00
2017-03-15T05:00:26.872Z,82.00
2017-03-15T05:01:25.777Z,82.00
2017-03-15T05:02:24.306Z,82.00
2017-03-15T05:03:23.500Z,82.00
2017-03-15T05:04:22.412Z,81.90
2017-03-15T05:05:20.905Z,81.90
2017-03-15T05:06:19.784Z,82.10
2017-03-15T05:07:18.714Z,82.00
2017-03-15T05:08:17.234Z,82.00
2017-03-15T05:09:16.021Z,82.00
2017-03-15T05:10:14.955Z,82.00
2017-03-15T05:11:14.861Z,82.00
2017-03-15T05:12:13.784Z,82.00
2017-03-15T05:13:12.692Z,82.00
2017-03-15T05:14:11.221Z,82.00
2017-03-15T05:15:10.407Z,82.00
2017-03-15T05:16:09.392Z,82.00
2017-03-15T05:17:08.268Z,82.10
2017-03-15T05:18:07.192Z,82.10
2017-03-15T05:19:06.135Z,82.00
2017-03-15T05:20:05.118Z,82.10
2017-03-15T05:21:04.381Z,82.10
2017-03-15T05:22:03.286Z,82.20
2017-03-15T05:23:02.212Z,82.20
2017-03-15T05:24:01.092Z,82.20
2017-03-15T05:25:00.004Z,82.20
2017-03-15T05:25:58.945Z,82.40
2017-03-15T05:26:58.175Z,82.40
2017-03-15T05:27:57.085Z,82.30
2017-03-15T05:28:56.018Z,82.30
2017-03-15T05:29:54.957Z,82.10
2017-03-15T05:30:53.899Z,82.40
2017-03-15T05:31:52.828Z,82.50
2017-03-15T05:32:51.765Z,82.50
2017-03-15T05:33:50.677Z,82.90
2017-03-15T05:34:49.616Z,83.00
2017-03-15T05:35:48.564Z,83.00
2017-03-15T05:36:47.503Z,83.30
2017-03-15T05:37:46.437Z,83.40
2017-03-15T05:38:45.346Z,83.50
2017-03-15T05:39:44.288Z,83.80
2017-03-15T05:40:42.825Z,83.80
2017-03-15T05:41:41.744Z,84.30
2017-03-15T05:42:40.633Z,84.60
2017-03-15T05:43:39.543Z,84.80
2017-03-15T05:44:38.730Z,85.00
2017-03-15T05:45:38.015Z,85.10
2017-03-15T05:46:36.557Z,85.10
2017-03-15T05:47:35.461Z,85.40
2017-03-15T05:48:34.373Z,85.30
2017-03-15T05:49:33.272Z,84.80
2017-03-15T05:50:32.472Z,84.50
2017-03-15T05:51:31.385Z,84.50
2017-03-15T05:52:30.301Z,84.50
2017-03-15T05:53:29.213Z,84.70
2017-03-15T05:54:28.097Z,84.90
2017-03-15T05:55:27.080Z,84.80
2017-03-15T05:56:26.324Z,84.70
2017-03-15T05:57:28.129Z,84.90
2017-03-15T05:58:27.065Z,84.80
2017-03-15T05:59:25.981Z,84.80
2017-03-15T06:00:24.872Z,84.70
2017-03-15T06:01:23.768Z,84.70
2017-03-15T06:02:23.089Z,84.80
2017-03-15T06:03:21.994Z,84.90
2017-03-15T06:04:20.936Z,84.90
2017-03-15T06:05:19.445Z,84.90
2017-03-15T06:06:18.370Z,84.80
2017-03-15T06:07:17.338Z,84.70
2017-03-15T06:08:16.564Z,84.70
2017-03-15T06:09:15.498Z,84.70
2017-03-15T06:10:14.437Z,84.80
2017-03-15T06:11:14.258Z,84.80
2017-03-15T06:12:13.171Z,84.70
2017-03-15T06:13:12.076Z,84.30
2017-03-15T06:14:11.434Z,84.20
2017-03-15T06:15:10.385Z,84.30
2017-03-15T06:16:09.305Z,84.50
2017-03-15T06:17:08.276Z,84.40
2017-03-15T06:18:07.210Z,84.40
2017-03-15T06:19:06.120Z,84.50
2017-03-15T06:20:05.320Z,84.50
2017-03-15T06:21:04.263Z,84.50
2017-03-15T06:22:03.168Z,84.50
2017-03-15T06:23:02.077Z,84.50
2017-03-15T06:24:00.989Z,84.50
2017-03-15T06:25:00.030Z,84.60
2017-03-15T06:25:59.278Z,84.60
2017-03-15T06:26:57.809Z,84.60
2017-03-15T06:27:56.317Z,84.40
2017-03-15T06:28:55.222Z,84.30
2017-03-15T06:29:54.118Z,84.30
2017-03-15T06:30:52.994Z,84.60
2017-03-15T06:31:52.188Z,84.90
2017-03-15T06:32:51.076Z,84.70
2017-03-15T06:33:49.982Z,84.70
2017-03-15T06:34:48.891Z,84.70
2017-03-15T06:35:47.592Z,84.70
2017-03-15T06:36:46.102Z,84.70
2017-03-15T06:37:45.331Z,85.10
2017-03-15T06:38:44.220Z,85.30
2017-03-15T06:39:43.175Z,85.30
2017-03-15T06:40:42.088Z,85.20
2017-03-15T06:41:40.597Z,85.20
2017-03-15T06:42:39.599Z,85.20
2017-03-15T06:43:40.454Z,85.20
2017-03-15T06:44:39.382Z,85.00
2017-03-15T06:45:38.317Z,84.60
2017-03-15T06:46:37.212Z,84.50
2017-03-15T06:47:35.727Z,84.50
2017-03-15T06:48:34.635Z,84.10
2017-03-15T06:49:33.536Z,84.10
2017-03-15T06:50:32.415Z,83.60
2017-03-15T06:51:31.352Z,83.30
2017-03-15T06:52:30.290Z,83.20
2017-03-15T06:53:29.221Z,83.10
2017-03-15T06:54:28.118Z,82.90
2017-03-15T06:55:27.424Z,82.80
2017-03-15T06:56:25.982Z,82.80
2017-03-15T06:57:24.878Z,82.60
2017-03-15T06:58:23.407Z,82.60
2017-03-15T06:59:22.335Z,82.60
2017-03-15T07:00:21.320Z,82.60
2017-03-15T07:01:20.549Z,82.40
2017-03-15T07:02:21.879Z,82.30
2017-03-15T07:03:21.693Z,82.20
2017-03-15T07:04:20.590Z,82.20
2017-03-15T07:05:19.528Z,82.20
2017-03-15T07:06:18.452Z,82.20
2017-03-15T07:07:17.681Z,82.10
2017-03-15T07:08:17.911Z,82.10
2017-03-15T07:09:16.914Z,82.10
2017-03-15T07:10:15.838Z,82.10
2017-03-15T07:11:14.730Z,82.20
2017-03-15T07:12:13.782Z,82.20
2017-03-15T07:13:13.001Z,82.10
2017-03-15T07:14:11.525Z,82.10
2017-03-15T07:15:10.476Z,81.90
2017-03-15T07:16:09.402Z,81.90
2017-03-15T07:17:08.293Z,81.90
2017-03-15T07:18:07.192Z,81.80
2017-03-15T07:19:06.493Z,81.60
2017-03-15T07:20:05.785Z,81.60
2017-03-15T07:21:04.881Z,81.50
2017-03-15T07:22:03.457Z,81.50
2017-03-15T07:23:02.455Z,81.10
2017-03-15T07:24:01.858Z,80.90
2017-03-15T07:25:00.876Z,80.80
2017-03-15T07:26:06.859Z,80.60
2017-03-15T07:27:05.798Z,80.50
2017-03-15T07:28:04.732Z,80.40
2017-03-15T07:29:03.652Z,80.40
2017-03-15T07:30:02.985Z,79.80
2017-03-15T07:31:01.927Z,79.80
2017-03-15T07:32:00.881Z,79.80
2017-03-15T07:32:59.835Z,79.70
2017-03-15T07:33:58.935Z,79.50
2017-03-15T07:34:57.881Z,79.60
2017-03-15T07:35:57.194Z,79.80
2017-03-15T07:36:56.164Z,79.80
2017-03-15T07:37:55.090Z,79.70
2017-03-15T07:38:54.035Z,79.60
2017-03-15T07:39:52.686Z,79.60
2017-03-15T07:40:51.654Z,79.30
2017-03-15T07:41:50.965Z,79.10
2017-03-15T07:42:49.930Z,79.00
2017-03-15T07:43:48.913Z,78.90
2017-03-15T07:44:47.861Z,78.70
2017-03-15T07:45:46.858Z,78.40
2017-03-15T07:46:46.791Z,78.30
2017-03-15T07:47:46.001Z,78.10
2017-03-15T07:48:45.385Z,77.80
2017-03-15T07:49:44.691Z,78.00
2017-03-15T07:50:44.887Z,77.90
2017-03-15T07:51:43.830Z,77.90
2017-03-15T07:52:42.777Z,77.90
2017-03-15T07:53:41.585Z,77.90
2017-03-15T07:54:40.670Z,78.00
2017-03-15T07:55:39.608Z,77.90
2017-03-15T07:56:39.690Z,77.80
2017-03-15T07:57:39.105Z,77.60
2017-03-15T07:58:41.993Z,77.50
2017-03-15T07:59:41.092Z,77.30
2017-03-15T08:00:41.303Z,77.20
2017-03-15T08:01:40.243Z,76.80
2017-03-15T08:02:45.041Z,76.70
2017-03-15T08:03:44.793Z,76.60
2017-03-15T08:04:43.752Z,76.60
2017-03-15T08:05:42.682Z,76.10
2017-03-15T08:06:41.653Z,75.80
2017-03-15T08:07:40.671Z,75.70
2017-03-15T08:08:39.637Z,75.70
2017-03-15T08:09:39.081Z,75.70
2017-03-15T08:10:38.181Z,75.60
2017-03-15T08:11:37.109Z,75.80
2017-03-15T08:12:36.034Z,75.70
2017-03-15T08:13:35.063Z,75.60
2017-03-15T08:14:34.047Z,75.30
2017-03-15T08:15:33.289Z,75.00
2017-03-15T08:16:32.230Z,74.60
2017-03-15T08:17:31.158Z,74.80
2017-03-15T08:18:30.092Z,74.40
2017-03-15T08:19:29.040Z,74.60
2017-03-15T08:20:33.333Z,74.60
2017-03-15T08:21:31.841Z,74.40
2017-03-15T08:22:30.913Z,75.10
2017-03-15T08:23:29.866Z,75.10
2017-03-15T08:24:28.791Z,75.40
2017-03-15T08:25:27.684Z,75.30
2017-03-15T08:26:26.980Z,75.00
2017-03-15T08:27:26.032Z,75.00
2017-03-15T08:28:24.981Z,75.20
2017-03-15T08:29:23.929Z,75.50
2017-03-15T08:30:22.840Z,75.20
2017-03-15T08:31:22.172Z,75.00
2017-03-15T08:32:21.522Z,74.80
2017-03-15T08:33:20.059Z,74.80
2017-03-15T08:34:18.966Z,75.00
2017-03-15T08:35:18.273Z,74.60
2017-03-15T08:36:17.184Z,73.40
2017-03-15T08:37:16.096Z,73.60
2017-03-15T08:38:15.411Z,74.00
2017-03-15T08:39:14.322Z,73.50
2017-03-15T08:40:12.872Z,73.50
2017-03-15T08:41:11.807Z,73.60
2017-03-15T08:42:10.713Z,73.80
2017-03-15T08:43:09.636Z,73.90
2017-03-15T08:44:09.003Z,73.80
2017-03-15T08:45:07.522Z,73.90
2017-03-15T08:46:06.416Z,73.70
2017-03-15T08:47:05.508Z,73.30
2017-03-15T08:48:04.481Z,73.30
2017-03-15T08:49:03.365Z,73.60
2017-03-15T08:50:02.598Z,73.60
2017-03-15T08:51:01.512Z,74.00
2017-03-15T08:52:00.411Z,73.80
2017-03-15T08:52:59.317Z,73.20
2017-03-15T08:53:58.200Z,73.00
2017-03-15T08:54:57.129Z,72.80
2017-03-15T08:55:55.913Z,72.80
2017-03-15T08:56:54.836Z,72.90
2017-03-15T08:57:53.399Z,72.90
2017-03-15T08:58:52.369Z,72.90
2017-03-15T08:59:51.282Z,72.60
2017-03-15T09:00:49.903Z,72.60
2017-03-15T09:01:49.163Z,73.10
2017-03-15T09:02:47.872Z,73.10
2017-03-15T09:03:46.833Z,72.80
2017-03-15T09:04:45.778Z,72.80
2017-03-15T09:05:45.509Z,72.80
2017-03-15T09:06:44.490Z,73.30
2017-03-15T09:07:43.887Z,73.30
2017-03-15T09:08:42.849Z,73.40
2017-03-15T09:09:41.761Z,73.40
2017-03-15T09:10:40.276Z,73.40
2017-03-15T09:11:39.191Z,73.60
2017-03-15T09:12:38.241Z,73.80
2017-03-15T09:13:37.470Z,73.40
2017-03-15T09:14:36.113Z,73.50
2017-03-15T09:15:35.013Z,73.00
2017-03-15T09:16:33.529Z,72.90
2017-03-15T09:17:32.508Z,72.90
2017-03-15T09:18:31.417Z,72.60
2017-03-15T09:19:30.643Z,72.80
2017-03-15T09:20:29.581Z,72.90
2017-03-15T09:21:28.510Z,72.90
2017-03-15T09:22:27.860Z,72.60
2017-03-15T09:23:26.769Z,72.70
2017-03-15T09:24:26.505Z,72.80
2017-03-15T09:25:25.709Z,72.70
2017-03-15T09:26:24.230Z,72.70
2017-03-15T09:27:24.184Z,73.20
2017-03-15T09:28:23.128Z,73.40
2017-03-15T09:29:21.618Z,73.40
2017-03-15T09:30:20.648Z,73.30
2017-03-15T09:31:19.873Z,72.90
2017-03-15T09:32:18.905Z,72.90
2017-03-15T09:33:17.829Z,73.20
2017-03-15T09:34:16.740Z,72.70
2017-03-15T09:35:15.297Z,72.80
2017-03-15T09:36:15.204Z,72.00
2017-03-15T09:37:14.480Z,72.20
2017-03-15T09:38:13.436Z,72.20
2017-03-15T09:39:11.956Z,72.20
2017-03-15T09:40:10.889Z,72.50
2017-03-15T09:41:09.875Z,72.70
2017-03-15T09:42:08.790Z,72.20
2017-03-15T09:43:07.578Z,72.20
2017-03-15T09:44:06.180Z,72.40
2017-03-15T09:45:04.692Z,72.30
2017-03-15T09:46:03.757Z,72.50
2017-03-15T09:47:02.308Z,72.60
2017-03-15T09:48:01.288Z,72.80
2017-03-15T09:49:00.533Z,72.80
2017-03-15T09:49:59.170Z,72.80
2017-03-15T09:50:58.096Z,72.80
2017-03-15T09:51:57.044Z,72.80
2017-03-15T09:52:56.006Z,73.00
2017-03-15T09:53:54.920Z,73.30
2017-03-15T09:54:54.123Z,72.90
2017-03-15T09:55:53.016Z,72.90
2017-03-15T09:56:51.943Z,72.90
2017-03-15T09:57:50.876Z,72.80
2017-03-15T09:58:49.392Z,72.90
2017-03-15T09:59:48.304Z,72.60
2017-03-15T10:00:47.170Z,72.60
2017-03-15T10:01:46.094Z,72.60
2017-03-15T10:02:44.700Z,72.60
2017-03-15T10:03:43.615Z,72.80
2017-03-15T10:04:42.563Z,72.60
2017-03-15T10:05:41.519Z,72.50
2017-03-15T10:06:40.789Z,72.20
2017-03-15T10:07:39.688Z,72.00
2017-03-15T10:08:38.668Z,72.50
2017-03-15T10:09:37.626Z,71.30
2017-03-15T10:10:37.090Z,71.20
2017-03-15T10:11:36.000Z,71.40
2017-03-15T10:12:35.613Z,71.10
2017-03-15T10:13:34.550Z,71.40
2017-03-15T10:14:33.487Z,71.50
2017-03-15T10:15:32.388Z,71.60
2017-03-15T10:16:31.210Z,71.60
2017-03-15T10:17:30.140Z,71.20
2017-03-15T10:18:30.504Z,70.90
2017-03-15T10:19:29.491Z,70.90
2017-03-15T10:20:28.405Z,71.20
2017-03-15T10:21:27.371Z,71.30
2017-03-15T10:22:26.312Z,71.30
2017-03-15T10:23:25.245Z,71.10
2017-03-15T10:24:24.494Z,71.20
2017-03-15T10:25:23.405Z,71.10
2017-03-15T10:26:22.324Z,71.20
2017-03-15T10:27:21.266Z,71.50
2017-03-15T10:28:20.455Z,71.50
2017-03-15T10:29:20.020Z,71.40
2017-03-15T10:30:19.409Z,71.70
2017-03-15T10:31:18.344Z,71.70
2017-03-15T10:32:17.285Z,71.40
2017-03-15T10:33:16.224Z,71.30
2017-03-15T10:34:14.816Z,71.30
2017-03-15T10:35:14.046Z,71.20
2017-03-15T10:36:12.604Z,71.20
2017-03-15T10:37:11.548Z,71.60
2017-03-15T10:38:10.430Z,71.20
2017-03-15T10:39:09.427Z,71.10
2017-03-15T10:40:10.452Z,71.10
2017-03-15T10:41:09.681Z,71.00
2017-03-15T10:42:10.222Z,71.30
2017-03-15T10:43:09.135Z,71.20
2017-03-15T10:44:07.674Z,71.20
2017-03-15T10:45:06.629Z,70.80
2017-03-15T10:46:05.594Z,70.70
2017-03-15T10:47:04.911Z,70.20
2017-03-15T10:48:03.460Z,70.20
2017-03-15T10:49:01.987Z,70.10
2017-03-15T10:50:02.951Z,69.90
2017-03-15T10:51:01.885Z,69.70
2017-03-15T10:52:00.387Z,69.70
2017-03-15T10:52:59.623Z,70.00
2017-03-15T10:53:58.698Z,70.00
2017-03-15T10:54:57.631Z,69.90
2017-03-15T10:55:56.571Z,70.00
2017-03-15T10:56:55.859Z,70.20
2017-03-15T10:57:55.236Z,70.40
2017-03-15T10:58:54.138Z,70.40
2017-03-15T10:59:54.720Z,69.90
2017-03-15T11:00:53.783Z,69.90
2017-03-15T11:01:53.118Z,70.10
2017-03-15T11:02:55.328Z,70.00
2017-03-15T11:03:54.676Z,69.70
2017-03-15T11:04:53.573Z,69.80
2017-03-15T11:05:52.765Z,69.80
2017-03-15T11:06:51.679Z,70.10
2017-03-15T11:07:50.597Z,70.20
2017-03-15T11:08:49.532Z,70.10
2017-03-15T11:09:48.400Z,70.10
2017-03-15T11:10:46.945Z,70.00
2017-03-15T11:11:45.851Z,69.70
2017-03-15T11:12:44.811Z,69.70
2017-03-15T11:13:44.124Z,69.50
2017-03-15T11:14:43.069Z,69.50
2017-03-15T11:15:42.377Z,68.90
2017-03-15T11:16:41.333Z,68.50
2017-03-15T11:17:40.239Z,67.70
2017-03-15T11:18:39.579Z,68.10
2017-03-15T11:19:38.478Z,68.30
2017-03-15T11:20:37.394Z,68.00
2017-03-15T11:21:36.984Z,68.20
2017-03-15T11:22:35.916Z,68.20
2017-03-15T11:23:34.420Z,68.20
2017-03-15T11:24:33.340Z,67.90
2017-03-15T11:25:32.251Z,67.70
2017-03-15T11:26:31.155Z,67.70
2017-03-15T11:27:30.372Z,67.60
2017-03-15T11:28:29.661Z,67.70
2017-03-15T11:29:28.939Z,68.00
2017-03-15T11:30:27.452Z,68.00
2017-03-15T11:31:26.023Z,67.90
2017-03-15T11:32:24.920Z,68.40
2017-03-15T11:33:24.163Z,67.80
2017-03-15T11:34:23.090Z,67.70
2017-03-15T11:35:22.004Z,67.70
2017-03-15T11:36:20.910Z,67.60
2017-03-15T11:37:20.861Z,67.60
2017-03-15T11:38:19.768Z,67.50
2017-03-15T11:39:18.984Z,67.70
2017-03-15T11:40:18.271Z,68.20
2017-03-15T11:41:17.208Z,68.70
2017-03-15T11:42:16.109Z,68.60
2017-03-15T11:43:15.020Z,68.30
2017-03-15T11:44:14.006Z,68.50
2017-03-15T11:45:13.590Z,69.30
2017-03-15T11:46:12.532Z,68.10
2017-03-15T11:47:11.460Z,67.90
2017-03-15T11:48:10.371Z,67.70
2017-03-15T11:49:09.281Z,67.60
2017-03-15T11:50:08.195Z,67.50
2017-03-15T11:51:07.793Z,67.90
2017-03-15T11:52:06.339Z,67.90
2017-03-15T11:53:05.252Z,66.90
2017-03-15T11:54:04.528Z,67.30
2017-03-15T11:55:03.552Z,67.00
2017-03-15T11:56:02.068Z,67.10
2017-03-15T11:57:01.281Z,67.50
2017-03-15T11:58:00.572Z,67.70
2017-03-15T11:58:59.472Z,67.90
2017-03-15T11:59:57.996Z,67.90
2017-03-15T12:00:57.793Z,67.80
2017-03-15T12:01:56.704Z,68.70
2017-03-15T12:02:55.998Z,68.90
2017-03-15T12:03:54.959Z,68.50
2017-03-15T12:04:53.847Z,68.30
2017-03-15T12:05:52.806Z,68.20
2017-03-15T12:06:51.733Z,67.80
2017-03-15T12:07:50.635Z,67.80
2017-03-15T12:08:49.478Z,68.10
2017-03-15T12:09:48.735Z,68.20
2017-03-15T12:10:47.656Z,68.60
2017-03-15T12:11:46.997Z,68.50
2017-03-15T12:12:45.912Z,68.50
2017-03-15T12:13:44.812Z,68.40
2017-03-15T12:14:44.090Z,68.50
2017-03-15T12:15:43.015Z,68.50
2017-03-15T12:16:41.920Z,68.50
2017-03-15T12:17:40.862Z,68.40
2017-03-15T12:18:39.812Z,68.30
2017-03-15T12:19:39.067Z,68.40
2017-03-15T12:20:38.404Z,68.60
2017-03-15T12:21:37.678Z,67.70
2017-03-15T12:22:36.578Z,67.60
2017-03-15T12:23:35.141Z,67.70
2017-03-15T12:24:34.136Z,67.70
2017-03-15T12:25:33.063Z,67.70
2017-03-15T12:26:32.265Z,68.20
2017-03-15T12:27:31.178Z,67.60
2017-03-15T12:28:30.427Z,67.60
2017-03-15T12:29:29.337Z,67.70
2017-03-15T12:30:28.260Z,68.00
2017-03-15T12:31:26.800Z,68.00
2017-03-15T12:32:26.055Z,68.10
2017-03-15T12:33:24.975Z,68.40
2017-03-15T12:34:23.908Z,68.40
2017-03-15T12:35:22.827Z,68.90
2017-03-15T12:36:21.810Z,69.00
2017-03-15T12:37:20.313Z,69.00
2017-03-15T12:38:19.577Z,68.70
2017-03-15T12:39:18.553Z,68.50
2017-03-15T12:40:17.837Z,68.60
2017-03-15T12:41:16.783Z,68.50